Time;durP1;ratioP1;P1;durP2;ratioP2;P2;SDS_P1;SDS_P2;PMS_P1;PMS_P2;Temp;Humidity;BMP_temperature;BMP_pressure;BME280_temperature;BME280_humidity;BME280_pressure;Samples;Min_cycle;Max_cycle;Signal;HPM_P1;HPM_P2
2022/02/08 00:00:41;;;;;;;;;40.50;35.25;;;;;6.08;68.79;102582.44;5099988;27;45629;-87
2022/02/08 00:03:09;;;;;;;;;42.50;36.25;;;;;6.84;68.85;102713.13;5099972;27;45591;-86
2022/02/08 00:05:37;;;;;;;;;43.00;35.25;;;;;6.59;68.75;102644.91;5099459;27;46576;-88
2022/02/08 00:08:03;;;;;;;;;40.75;34.00;;;;;6.12;68.68;102575.78;5098749;27;45606;-85
2022/02/08 00:10:29;;;;;;;;;28.75;28.25;;;;;6.44;68.76;102612.34;5099434;27;45471;-82
2022/02/08 00:12:57;;;;;;;;;41.50;35.25;;;;;6.16;68.66;102555.28;5098140;27;45408;-83
2022/02/08 00:15:22;;;;;;;;;38.50;36.25;;;;;6.29;68.71;102598.03;5099445;27;45848;-86
2022/02/08 00:17:48;;;;;;;;;37.75;34.00;;;;;6.13;69.03;102568.06;5099021;27;45628;-83
2022/02/08 00:20:13;;;;;;;;;49.00;40.00;;;;;6.72;68.76;102657.28;5099121;27;45378;-82
2022/02/08 00:22:39;;;;;;;;;39.00;37.50;;;;;6.95;68.88;102680.06;5099367;27;45457;-88
2022/02/08 00:25:06;;;;;;;;;42.50;39.25;;;;;7.11;69.04;102696.16;5098528;27;46292;-80
2022/02/08 00:27:32;;;;;;;;;44.75;38.50;;;;;6.58;69.09;102587.34;5098650;27;45260;-82
2022/02/08 00:29:57;;;;;;;;;43.50;37.75;;;;;6.73;68.92;102622.53;5098769;27;45282;-78
2022/02/08 00:32:23;;;;;;;;;42.25;37.25;;;;;6.74;68.85;102616.50;5099142;27;45317;-86
2022/02/08 00:34:48;;;;;;;;;38.25;32.50;;;;;6.54;68.63;102580.94;5098373;27;45584;-79
2022/02/08 00:37:14;;;;;;;;;33.50;31.25;;;;;6.53;68.55;102584.34;5096300;27;45385;-76
2022/02/08 00:39:40;;;;;;;;;33.75;30.75;;;;;6.80;68.46;102618.69;5096214;27;45493;-76
2022/02/08 00:42:08;;;;;;;;;38.00;36.25;;;;;6.95;68.79;102638.22;5094549;27;45519;-75
2022/02/08 00:44:40;;;;;;;;;35.00;33.50;;;;;6.57;68.70;102565.53;5095958;27;46463;-75
2022/02/08 00:50:11;;;;;;;;;23.25;21.00;;;;;6.71;68.85;102556.19;5093558;27;45426;-76
2022/02/08 00:52:39;;;;;;;;;26.00;23.00;;;;;7.32;68.78;102657.72;5093196;27;45514;-76
2022/02/08 00:55:12;;;;;;;;;29.25;28.00;;;;;7.54;68.58;102688.16;5093873;27;46426;-76
2022/02/08 00:57:37;;;;;;;;;35.75;32.75;;;;;6.76;68.27;102539.16;5095728;27;45370;-76
2022/02/08 01:00:06;;;;;;;;;40.00;34.50;;;;;6.85;68.42;102565.13;5095889;27;45504;-75
2022/02/08 01:02:31;;;;;;;;;34.00;32.75;;;;;7.14;68.09;102607.53;5094611;27;45261;-76
2022/02/08 01:05:00;;;;;;;;;28.00;28.00;;;;;7.56;67.93;102683.97;5095691;27;46467;-76
2022/02/08 01:07:27;;;;;;;;;28.75;28.50;;;;;7.37;68.41;102647.63;5095895;27;45546;-76
2022/02/08 01:09:56;;;;;;;;;31.75;30.00;;;;;6.90;68.37;102558.53;5095908;27;45491;-75
2022/02/08 01:12:23;;;;;;;;;27.50;27.00;;;;;7.05;68.17;102585.88;5095772;27;45449;-75
2022/02/08 01:14:50;;;;;;;;;32.50;28.75;;;;;7.45;68.02;102633.44;5095686;27;45593;-75
2022/02/08 01:17:16;;;;;;;;;22.00;20.50;;;;;7.72;67.87;102685.25;5097888;27;45421;-76
2022/02/08 01:20:01;;;;;;;;;24.00;22.75;;;;;7.20;67.80;102594.91;5114035;27;45285;-76
2022/02/08 01:22:26;;;;;;;;;21.25;19.50;;;;;7.71;67.79;102677.31;5113903;27;45075;-77
2022/02/08 01:24:52;;;;;;;;;19.00;17.75;;;;;6.78;68.01;102515.75;5113573;27;46090;-76
2022/02/08 01:27:22;;;;;;;;;14.50;13.75;;;;;7.82;67.46;102684.25;5113338;27;45163;-76
2022/02/08 01:40:15;;;;;;;;;15.00;11.25;;;;;7.95;67.27;102694.88;5098475;27;45674;-88
2022/02/08 01:50:28;;;;;;;;;12.00;12.00;;;;;7.80;67.42;102677.09;5098828;27;45349;-88
2022/02/08 01:52:53;;;;;;;;;13.25;12.00;;;;;7.60;67.32;102620.63;5097188;27;45456;-84
2022/02/08 01:55:20;;;;;;;;;18.50;16.00;;;;;7.97;67.25;102697.63;5096341;27;47396;-88
2022/02/08 01:57:46;;;;;;;;;16.75;14.00;;;;;7.70;67.28;102628.38;5097881;27;45310;-85
2022/02/08 02:00:15;;;;;;;;;16.75;14.25;;;;;7.45;67.22;102579.41;5096880;27;45386;-85
2022/02/08 02:02:41;;;;;;;;;19.25;15.25;;;;;8.07;67.24;102678.28;5098312;27;45216;-88
2022/02/08 02:05:06;;;;;;;;;18.00;15.00;;;;;7.75;66.91;102617.47;5096100;27;46399;-86
2022/02/08 02:07:33;;;;;;;;;19.00;18.50;;;;;8.19;67.23;102690.59;5097686;27;45472;-88
2022/02/08 02:09:59;;;;;;;;;17.00;15.25;;;;;7.66;67.08;102590.59;5097580;27;45353;-86
2022/02/08 02:12:25;;;;;;;;;17.25;15.75;;;;;8.04;67.14;102658.03;5097607;27;45272;-83
2022/02/08 02:14:50;;;;;;;;;16.75;14.50;;;;;7.84;66.88;102625.09;5097379;27;46455;-88
2022/02/08 02:17:17;;;;;;;;;18.75;17.50;;;;;7.55;67.24;102574.88;5097771;27;45330;-87
2022/02/08 02:19:43;;;;;;;;;15.00;14.00;;;;;7.93;67.12;102635.34;5097529;27;45479;-85
2022/02/08 02:22:08;;;;;;;;;22.75;20.50;;;;;8.06;67.30;102664.28;5097489;27;45251;-88
2022/02/08 02:24:36;;;;;;;;;20.00;17.00;;;;;7.98;66.86;102650.63;5097154;27;45617;-83
2022/02/08 02:27:03;;;;;;;;;16.75;16.75;;;;;7.74;67.13;102601.66;5097087;27;45813;-80
2022/02/08 02:29:30;;;;;;;;;18.75;15.75;;;;;7.88;67.03;102629.78;5097097;27;45619;-78
2022/02/08 02:31:57;;;;;;;;;15.00;15.00;;;;;8.32;66.96;102696.75;5097020;27;45409;-88
2022/02/08 02:34:23;;;;;;;;;16.25;15.00;;;;;8.01;67.01;102639.44;5096800;27;46635;-88
2022/02/08 02:36:49;;;;;;;;;15.25;15.00;;;;;7.91;67.05;102629.09;5097317;27;45523;-86
2022/02/08 02:39:23;;;;;;;;;20.00;17.75;;;;;7.97;66.87;102629.53;5096984;27;45592;-84
2022/02/08 02:41:48;;;;;;;;;20.00;18.00;;;;;7.96;67.03;102627.72;5095321;27;45404;-76
2022/02/08 02:44:20;;;;;;;;;20.50;18.50;;;;;8.34;67.15;102682.06;5097795;27;46378;-76
2022/02/08 02:46:45;;;;;;;;;15.50;15.50;;;;;8.32;67.28;102676.69;5094261;27;46274;-76
2022/02/08 02:49:11;;;;;;;;;16.75;16.75;;;;;8.17;67.26;102644.13;5094355;27;45428;-76
2022/02/08 02:51:39;;;;;;;;;19.00;16.50;;;;;8.30;67.15;102666.91;5093881;27;45608;-80
2022/02/08 02:54:13;;;;;;;;;20.25;16.25;;;;;7.64;67.26;102549.41;5092303;27;46203;-76
2022/02/08 02:56:38;;;;;;;;;18.75;15.25;;;;;8.23;67.23;102663.84;5092886;27;45685;-75
2022/02/08 02:59:05;;;;;;;;;17.75;15.50;;;;;7.88;67.06;102592.19;5094258;27;45770;-76
2022/02/08 03:01:53;;;;;;;;;15.25;15.00;;;;;7.70;67.04;102552.47;5094016;27;45563;-76
2022/02/08 03:18:09;;;;;;;;;14.75;14.00;;;;;8.31;67.33;102668.72;5073556;28;45653;-78
2022/02/08 03:20:35;;;;;;;;;19.50;15.75;;;;;8.15;67.07;102632.63;5071966;27;45231;-76
2022/02/08 03:23:00;;;;;;;;;17.75;14.25;;;;;7.72;67.19;102559.63;5073564;28;45407;-75
2022/02/08 03:25:26;;;;;;;;;18.00;15.00;;;;;7.83;67.34;102577.84;5073098;27;45461;-76
2022/02/08 03:27:51;;;;;;;;;14.00;13.00;;;;;7.81;67.23;102550.66;5073229;27;45464;-76
2022/02/08 03:30:16;;;;;;;;;16.50;14.75;;;;;8.27;67.37;102630.91;5103881;27;45050;-77
2022/02/08 03:32:42;;;;;;;;;17.00;15.33;;;;;7.99;67.12;102586.06;5112087;27;45247;-75
2022/02/08 03:35:09;;;;;;;;;15.75;13.50;;;;;7.89;66.91;102568.78;5111727;27;45267;-75
2022/02/08 03:37:35;;;;;;;;;17.25;14.50;;;;;8.32;67.12;102655.75;5111588;27;45495;-75
2022/02/08 03:40:07;;;;;;;;;16.00;15.00;;;;;8.43;67.33;102664.47;5101838;27;45458;-75
2022/02/08 03:42:40;;;;;;;;;15.25;14.50;;;;;8.43;67.08;102660.13;5093133;27;45321;-77
2022/02/08 03:45:09;;;;;;;;;15.00;12.75;;;;;8.40;67.15;102656.34;5093461;27;45469;-77
2022/02/08 03:47:36;;;;;;;;;16.75;14.50;;;;;8.29;67.11;102637.19;5093288;27;46089;-76
2022/02/08 03:50:04;;;;;;;;;17.75;14.25;;;;;8.11;66.95;102610.53;5093701;27;45801;-77
2022/02/08 03:52:30;;;;;;;;;13.25;12.50;;;;;7.84;67.12;102566.59;5095901;27;45623;-88
2022/02/08 03:54:55;;;;;;;;;12.50;12.25;;;;;8.50;66.97;102675.50;5096648;27;45515;-88
2022/02/08 03:57:24;;;;;;;;;16.50;13.75;;;;;8.17;67.22;102616.22;5096823;27;45729;-87
2022/02/08 03:59:49;;;;;;;;;17.25;14.50;;;;;8.31;67.02;102642.53;5096810;27;45331;-87
2022/02/08 04:07:49;;;;;;;;;12.75;11.75;;;;;8.28;67.01;102638.91;5096445;27;45347;-86
2022/02/08 04:10:22;;;;;;;;;15.25;13.25;;;;;7.78;67.01;102542.56;5096448;27;45444;-82
2022/02/08 04:34:23;;;;;;;;;12.75;12.75;;;;;8.16;67.33;102622.25;5099164;27;45442;-80
2022/02/08 04:47:43;;;;;;;;;11.25;10.00;;;;;8.40;67.47;102645.88;5098514;27;45426;-86
2022/02/08 04:50:10;;;;;;;;;12.75;12.50;;;;;8.41;67.78;102656.47;5096272;27;45459;-76
2022/02/08 04:52:36;;;;;;;;;11.00;10.50;;;;;8.60;67.70;102684.94;5095975;27;45481;-76
2022/02/08 04:57:35;;;;;;;;;11.75;10.00;;;;;8.48;67.88;102648.28;5095964;27;45501;-76
2022/02/08 05:00:59;;;;;;;;;10.00;9.00;;;;;8.39;68.21;102620.47;5095952;27;45447;-76
2022/02/08 05:35:43;;;;;;;;;9.25;8.75;;;;;8.82;68.96;102702.22;5095665;27;45349;-76
2022/02/08 05:48:51;;;;;;;;;11.75;9.00;;;;;8.89;69.31;102673.03;5113156;27;45356;-75
2022/02/08 05:51:20;;;;;;;;;9.00;9.00;;;;;8.97;69.34;102677.16;5104290;27;45664;-76
2022/02/08 05:53:46;;;;;;;;;9.25;8.50;;;;;8.30;69.30;102556.91;5094219;27;45410;-75
2022/02/08 05:56:16;;;;;;;;;8.25;7.75;;;;;8.58;69.49;102607.00;5094806;27;45377;-76
2022/02/08 05:58:45;;;;;;;;;9.75;9.75;;;;;8.35;69.44;102566.91;5095146;27;45459;-76
2022/02/08 06:01:11;;;;;;;;;7.00;7.00;;;;;9.00;69.79;102667.75;5094143;27;45486;-77
2022/02/08 06:03:37;;;;;;;;;8.50;7.75;;;;;8.97;69.38;102664.94;5094854;27;45868;-80
2022/02/08 06:06:03;;;;;;;;;8.00;7.00;;;;;8.83;69.32;102646.41;5097948;27;45452;-88
2022/02/08 06:08:28;;;;;;;;;9.75;9.75;;;;;8.37;69.72;102553.94;5088919;27;45418;-91
2022/02/08 06:11:12;;;;;;;;;10.25;9.00;;;;;8.67;69.29;102591.91;5095051;27;46547;-91
2022/02/08 06:13:38;;;;;;;;;10.00;10.00;;;;;8.19;69.82;102522.97;5098407;27;45354;-90
2022/02/08 06:16:06;;;;;;;;;10.00;8.00;;;;;9.14;69.87;102688.84;5098183;27;45444;-90
2022/02/08 06:18:32;;;;;;;;;11.00;10.00;;;;;8.62;69.83;102594.25;5097112;27;45529;-87
2022/02/08 06:20:58;;;;;;;;;7.25;7.00;;;;;8.60;69.79;102593.19;5098116;27;45534;-86
2022/02/08 06:23:24;;;;;;;;;10.00;8.00;;;;;8.49;70.05;102589.81;5097859;27;45416;-88
2022/02/08 06:25:50;;;;;;;;;8.00;8.00;;;;;8.40;70.12;102559.41;5096371;27;45353;-88
2022/02/08 06:28:17;;;;;;;;;9.00;9.00;;;;;8.71;70.26;102615.84;5097782;27;45625;-86
2022/02/08 06:30:42;;;;;;;;;11.25;9.50;;;;;8.07;69.96;102495.88;5097348;27;46607;-87
2022/02/08 06:33:08;;;;;;;;;9.50;9.50;;;;;8.47;70.28;102573.09;5097193;27;45326;-85
2022/02/08 06:35:34;;;;;;;;;9.50;8.00;;;;;8.60;70.32;102602.78;5097530;27;45659;-89
2022/02/08 06:38:01;;;;;;;;;10.00;9.00;;;;;8.42;70.39;102558.75;5097626;27;45281;-84
2022/02/08 06:40:28;;;;;;;;;9.00;8.25;;;;;8.60;70.41;102597.53;5095627;27;47262;-87
2022/02/08 06:43:03;;;;;;;;;13.75;11.50;;;;;9.14;70.48;102687.13;5104739;27;45072;-88
2022/02/08 06:45:28;;;;;;;;;7.50;7.50;;;;;8.46;70.51;102563.38;5106936;27;45658;-88
2022/02/08 06:47:54;;;;;;;;;16.00;14.00;;;;;9.13;70.65;102681.78;5113084;27;45032;-87
2022/02/08 06:50:19;;;;;;;;;10.00;9.75;;;;;8.64;70.49;102602.22;5111095;27;45395;-89
2022/02/08 06:52:45;;;;;;;;;12.75;10.25;;;;;9.14;70.53;102679.25;5107674;27;45257;-86
2022/02/08 06:55:11;;;;;;;;;11.75;11.50;;;;;8.40;70.50;102555.09;5103691;27;45405;-79
2022/02/08 06:57:49;;;;;;;;;8.50;8.50;;;;;8.28;70.40;102538.47;5101679;27;45384;-77
2022/02/08 07:00:18;;;;;;;;;8.50;8.00;;;;;8.47;70.93;102567.84;5100963;27;45706;-82
2022/02/08 07:02:43;;;;;;;;;15.50;13.00;;;;;8.53;70.98;102584.00;5101130;27;45326;-81
2022/02/08 07:05:09;;;;;;;;;7.25;7.25;;;;;8.63;71.10;102603.00;5097512;27;45369;-83
2022/02/08 07:07:34;;;;;;;;;14.50;13.00;;;;;8.94;70.79;102650.69;5098431;27;45334;-77
2022/02/08 07:09:59;;;;;;;;;10.00;9.00;;;;;9.17;71.13;102687.34;5101634;27;45490;-77
2022/02/08 07:12:25;;;;;;;;;14.00;12.50;;;;;9.14;71.00;102686.22;5102904;27;45184;-79
2022/02/08 07:14:50;;;;;;;;;13.25;10.50;;;;;8.43;71.02;102564.88;5100382;27;45096;-78
2022/02/08 07:17:15;;;;;;;;;12.67;11.67;;;;;9.26;71.07;102714.25;5103236;27;45329;-76
2022/02/08 07:19:41;;;;;;;;;11.50;11.50;;;;;9.07;71.24;102670.84;5102525;27;45872;-76
2022/02/08 07:22:06;;;;;;;;;13.50;10.75;;;;;8.66;71.21;102597.97;5095388;27;45579;-80
2022/02/08 07:24:32;;;;;;;;;10.25;9.00;;;;;8.63;71.14;102598.69;5104723;27;45189;-76
2022/02/08 07:26:57;;;;;;;;;13.75;10.50;;;;;8.65;71.21;102597.06;5109569;27;44729;-76
2022/02/08 07:29:23;;;;;;;;;9.50;9.25;;;;;8.83;71.01;102631.56;5099449;27;45869;-76
2022/02/08 07:31:55;;;;;;;;;12.00;10.00;;;;;9.01;70.78;102660.81;5096822;27;45381;-77
2022/02/08 07:34:27;;;;;;;;;12.50;11.75;;;;;9.43;70.84;102728.56;5090552;27;45650;-75
2022/02/08 07:37:10;;;;;;;;;14.00;13.50;;;;;9.44;70.84;102735.63;5089494;27;45414;-76
2022/02/08 07:39:43;;;;;;;;;12.25;10.75;;;;;9.45;70.95;102728.66;5086771;27;48338;-77
2022/02/08 07:42:08;;;;;;;;;13.25;12.00;;;;;9.34;70.85;102716.50;5092975;27;46129;-77
2022/02/08 07:44:34;;;;;;;;;15.50;15.00;;;;;8.94;70.90;102640.19;5090948;27;45865;-78
2022/02/08 07:47:00;;;;;;;;;11.00;10.00;;;;;8.62;70.67;102588.06;5092788;27;45472;-75
2022/02/08 07:49:26;;;;;;;;;10.50;9.75;;;;;9.04;70.82;102661.03;5092086;27;46947;-76
2022/02/08 07:51:52;;;;;;;;;14.00;11.25;;;;;9.51;70.52;102750.09;5092803;27;45873;-75
2022/02/08 07:54:17;;;;;;;;;13.75;11.50;;;;;8.93;70.48;102655.03;5094360;27;45373;-75
2022/02/08 07:56:42;;;;;;;;;13.50;11.50;;;;;9.18;70.54;102688.25;5096067;27;45329;-79
2022/02/08 07:59:08;;;;;;;;;14.00;14.00;;;;;8.84;70.69;102622.91;5097860;27;46298;-76
2022/02/08 08:01:33;;;;;;;;;16.25;15.25;;;;;9.27;70.71;102692.44;5097054;27;45527;-89
2022/02/08 08:03:58;;;;;;;;;15.75;15.25;;;;;8.93;70.62;102630.53;5111111;27;45112;-81
2022/02/08 08:06:24;;;;;;;;;16.75;16.00;;;;;9.33;70.49;102698.94;5114812;27;45010;-84
2022/02/08 08:08:51;;;;;;;;;17.75;14.50;;;;;9.01;70.54;102648.63;5114334;27;45445;-78
2022/02/08 08:11:22;;;;;;;;;17.00;16.25;;;;;8.86;70.97;102617.75;5112047;27;45553;-76
2022/02/08 08:14:00;;;;;;;;;18.25;17.25;;;;;9.30;70.64;102689.09;5113766;27;45106;-84
2022/02/08 08:16:40;;;;;;;;;16.50;15.50;;;;;9.08;70.94;102639.47;5115082;27;45080;-90
2022/02/08 08:21:40;;;;;;;;;17.75;17.00;;;;;9.00;70.80;102617.03;5104410;27;45344;-86
2022/02/08 08:24:08;;;;;;;;;18.75;17.00;;;;;9.43;70.69;102689.19;5101168;27;45337;-81
2022/02/08 08:26:36;;;;;;;;;16.00;15.00;;;;;8.92;70.44;102613.88;5095720;27;45609;-83
2022/02/08 08:29:03;;;;;;;;;14.75;14.75;;;;;9.37;70.78;102687.84;5091293;27;46586;-78
2022/02/08 08:31:28;;;;;;;;;21.00;18.50;;;;;9.46;70.50;102696.38;5096312;27;45542;-77
2022/02/08 08:33:54;;;;;;;;;21.25;20.00;;;;;9.69;70.44;102738.25;5095587;27;45441;-78
2022/02/08 08:36:21;;;;;;;;;24.75;24.00;;;;;9.71;70.42;102747.16;5095666;27;45639;-75
2022/02/08 08:38:48;;;;;;;;;20.50;19.50;;;;;9.48;70.25;102695.66;5095998;27;46264;-74
2022/02/08 08:44:04;;;;;;;;;22.50;19.75;;;;;9.67;70.33;102739.88;5097440;27;45560;-86
2022/02/08 08:51:46;;;;;;;;;16.75;16.50;;;;;9.15;70.89;102625.97;5114285;27;46324;-87
2022/02/08 08:54:13;;;;;;;;;15.75;14.75;;;;;9.69;70.34;102719.88;5113998;27;45150;-75
2022/02/08 08:56:41;;;;;;;;;17.00;16.25;;;;;9.85;70.41;102740.22;5114751;27;45181;-84
2022/02/08 08:59:09;;;;;;;;;21.00;19.50;;;;;9.79;70.40;102730.22;5112967;27;46012;-82
2022/02/08 09:01:35;;;;;;;;;15.75;14.50;;;;;9.73;70.42;102727.16;5102600;27;45491;-80
2022/02/08 09:04:02;;;;;;;;;19.00;18.25;;;;;9.10;70.50;102611.63;5108950;27;45373;-75
2022/02/08 09:06:28;;;;;;;;;17.50;16.00;;;;;9.53;70.46;102688.13;5106849;27;45214;-76
2022/02/08 09:08:53;;;;;;;;;19.00;17.50;;;;;9.68;70.49;102704.94;5106763;27;45673;-76
2022/02/08 09:11:43;;;;;;;;;14.00;14.00;;;;;9.93;70.58;102753.91;5100989;27;45418;-85
2022/02/08 09:19:21;;;;;;;;;17.75;17.00;;;;;9.50;70.62;102666.88;5101695;27;45770;-76
2022/02/08 09:27:47;;;;;;;;;17.50;16.25;;;;;9.35;70.59;102637.88;5096153;27;45332;-76
2022/02/08 09:30:14;;;;;;;;;19.75;18.25;;;;;9.85;70.65;102692.94;5078114;27;45362;-75
2022/02/08 09:35:09;;;;;;;;;22.50;20.25;;;;;9.83;70.77;102684.97;5089241;27;45050;-78
2022/02/08 09:37:35;;;;;;;;;18.00;18.00;;;;;9.92;70.44;102683.81;5109808;27;44990;-75
2022/02/08 09:40:01;;;;;;;;;21.50;18.50;;;;;9.74;70.38;102646.69;5103564;27;45639;-76
2022/02/08 09:42:27;;;;;;;;;20.00;19.00;;;;;10.05;70.54;102703.13;5099008;27;45776;-75
2022/02/08 09:44:55;;;;;;;;;22.25;20.00;;;;;10.20;70.65;102724.28;5099714;27;45421;-87
2022/02/08 09:47:32;;;;;;;;;17.75;16.50;;;;;9.72;70.54;102635.16;5102219;27;45289;-87
2022/02/08 09:50:06;;;;;;;;;19.75;19.25;;;;;9.79;70.82;102638.31;5103835;27;46520;-76
2022/02/08 09:52:31;;;;;;;;;15.00;14.75;;;;;10.06;70.65;102668.16;5104331;27;45619;-77
2022/02/08 09:54:57;;;;;;;;;20.00;17.50;;;;;9.99;70.75;102639.66;5101915;27;45763;-81
2022/02/08 09:57:22;;;;;;;;;3.25;1.25;;;;;10.29;71.04;102677.59;5101069;27;45227;-75
2022/02/08 09:59:48;;;;;;;;;16.00;15.00;;;;;10.41;70.52;102685.41;5099949;27;45639;-75
2022/02/08 10:02:18;;;;;;;;;19.00;17.75;;;;;9.93;70.48;102596.31;5096610;27;45511;-75
2022/02/08 10:04:44;;;;;;;;;16.75;16.00;;;;;10.47;70.44;102685.81;5103458;27;45286;-75
2022/02/08 10:07:11;;;;;;;;;16.00;15.50;;;;;10.43;70.53;102672.34;5107176;27;45505;-77
2022/02/08 10:09:36;;;;;;;;;16.50;15.75;;;;;10.36;70.26;102646.50;5096958;27;46451;-77
2022/02/08 10:12:02;;;;;;;;;17.75;16.25;;;;;10.39;70.41;102644.03;5087863;27;45435;-80
2022/02/08 10:14:53;;;;;;;;;15.50;12.00;;;;;10.30;70.11;102605.88;5087823;27;45881;-76
2022/02/08 10:22:54;;;;;;;;;13.25;13.25;;;;;10.41;70.11;102582.00;5092790;27;46018;-79
2022/02/08 10:38:49;;;;;;;;;20.75;18.00;;;;;10.67;69.49;102620.47;5113436;27;45239;-87
2022/02/08 10:41:19;;;;;;;;;18.50;18.00;;;;;10.73;69.41;102626.13;5103497;27;45754;-88
2022/02/08 10:44:05;;;;;;;;;20.50;20.00;;;;;11.29;69.58;102708.66;5099525;27;45739;-87
2022/02/08 10:46:32;;;;;;;;;27.50;21.00;;;;;10.71;69.37;102619.84;5097852;27;45547;-88
2022/02/08 10:49:01;;;;;;;;;24.00;19.75;;;;;11.37;69.47;102719.66;5105188;27;45337;-88
2022/02/08 10:51:27;;;;;;;;;20.50;18.00;;;;;10.99;69.09;102646.22;5112699;27;45975;-82
2022/02/08 10:54:01;;;;;;;;;22.75;19.75;;;;;11.41;69.14;102726.94;5112015;27;45151;-84
2022/02/08 10:56:31;;;;;;;;;21.25;20.25;;;;;10.68;69.10;102595.97;5112257;27;45412;-85
2022/02/08 11:02:06;;;;;;;;;16.00;14.25;;;;;10.89;68.89;102592.09;5110672;27;45793;-82
2022/02/08 11:05:25;;;;;;;;;24.75;22.50;;;;;10.95;69.14;102581.06;5111741;27;45591;-86
2022/02/08 11:22:59;;;;;;;;;11.50;10.75;;;;;11.65;67.96;102618.69;5109523;27;45767;-75
2022/02/08 11:25:33;;;;;;;;;12.00;10.75;;;;;11.90;68.09;102635.16;5105586;27;45677;-75
2022/02/08 11:28:21;;;;;;;;;12.75;12.75;;;;;12.23;67.97;102688.97;5094069;27;45436;-77
2022/02/08 11:31:09;;;;;;;;;11.00;10.00;;;;;12.07;67.94;102646.72;5094777;27;45584;-80
2022/02/08 11:33:59;;;;;;;;;11.75;11.75;;;;;11.51;67.86;102544.09;5096896;27;46622;-76
2022/02/08 11:53:23;;;;;;;;;13.00;12.75;;;;;12.52;67.60;102666.03;5096654;27;45420;-86
2022/02/08 11:59:47;;;;;;;;;10.25;10.25;;;;;12.18;67.53;102587.63;5096670;27;46080;-75
2022/02/08 12:09:57;;;;;;;;;10.00;9.50;;;;;12.52;67.31;102600.09;5096661;27;45389;-77
2022/02/08 12:59:16;;;;;;;;;6.00;6.00;;;;;12.44;66.36;102472.16;5097462;27;45600;-84
2022/02/08 13:04:44;;;;;;;;;9.25;8.00;;;;;12.89;66.24;102545.88;5096385;27;45929;-86
2022/02/08 14:05:37;;;;;;;;;14.50;12.25;;;;;12.97;64.76;102463.56;5107981;27;45291;-74
2022/02/08 14:08:11;;;;;;;;;32.25;30.00;;;;;13.02;64.87;102489.38;5110215;27;45910;-74
2022/02/08 14:32:05;;;;;;;;;9.75;8.25;;;;;12.03;65.26;102381.19;5112431;27;45135;-75
2022/02/08 15:07:23;;;;;;;;;13.75;13.75;;;;;12.53;65.78;102464.75;5096569;27;45330;-89
2022/02/08 15:09:48;;;;;;;;;11.75;11.00;;;;;12.37;65.58;102461.28;5095243;27;45242;-92
2022/02/08 15:12:18;;;;;;;;;26.00;24.75;;;;;12.40;66.00;102468.44;5094684;27;45518;-89
2022/02/08 15:14:49;;;;;;;;;9.25;8.75;;;;;12.67;66.20;102540.28;5094810;27;45449;-80
2022/02/08 15:17:15;;;;;;;;;8.50;7.75;;;;;12.11;66.05;102449.28;5094643;27;45475;-83
2022/02/08 15:19:42;;;;;;;;;12.25;10.50;;;;;12.11;66.07;102438.72;5095419;27;45441;-84
2022/02/08 15:22:09;;;;;;;;;46.25;38.25;;;;;12.25;66.27;102479.03;5092719;27;46316;-76
2022/02/08 15:24:35;;;;;;;;;13.25;11.75;;;;;12.31;66.54;102499.56;5089644;27;46087;-76
2022/02/08 15:27:02;;;;;;;;;9.50;8.25;;;;;12.07;66.48;102441.16;5096482;27;45500;-78
2022/02/08 15:29:27;;;;;;;;;10.00;9.75;;;;;12.32;66.34;102488.22;5093388;27;45520;-77
2022/02/08 15:31:55;;;;;;;;;12.75;12.50;;;;;11.65;66.64;102385.19;5090831;27;46301;-76
2022/02/08 15:34:21;;;;;;;;;11.75;11.75;;;;;11.75;66.44;102402.41;5092493;27;46112;-77
2022/02/08 15:36:46;;;;;;;;;9.50;9.25;;;;;12.22;66.49;102492.06;5090328;27;45417;-80
2022/02/08 15:39:12;;;;;;;;;5.75;5.00;;;;;11.87;66.67;102442.63;5091690;27;45595;-77
2022/02/08 15:41:39;;;;;;;;;7.00;7.00;;;;;11.71;66.68;102413.59;5089710;27;45622;-83
2022/02/08 15:44:10;;;;;;;;;7.25;7.00;;;;;12.04;66.76;102493.66;5092056;27;45509;-85
2022/02/08 15:46:35;;;;;;;;;10.50;9.75;;;;;12.10;67.26;102489.63;5092564;27;45541;-86
2022/02/08 15:49:01;;;;;;;;;9.50;8.25;;;;;12.23;67.02;102504.44;5094286;27;45433;-89
2022/02/08 15:52:14;;;;;;;;;7.00;5.75;;;;;11.96;67.18;102451.06;5087525;27;46396;-90
2022/02/08 15:54:44;;;;;;;;;9.50;7.00;;;;;11.67;66.93;102401.97;5096957;27;45575;-90
2022/02/08 16:05:19;;;;;;;;;8.25;8.25;;;;;11.83;66.78;102457.38;5094683;27;45643;-82
2022/02/08 16:08:10;;;;;;;;;10.00;8.50;;;;;11.94;67.11;102481.69;5110970;27;44839;-80
2022/02/08 16:10:44;;;;;;;;;6.75;6.50;;;;;12.12;67.22;102513.47;5093838;27;45655;-83
2022/02/08 16:13:30;;;;;;;;;9.50;9.25;;;;;11.87;67.14;102480.47;5091201;27;46071;-78
2022/02/08 16:19:09;;;;;;;;;9.25;8.25;;;;;11.91;67.40;102506.97;5096631;27;45358;-80
2022/02/08 16:46:05;;;;;;;;;11.75;11.25;;;;;11.05;68.39;102413.31;5096815;27;45956;-77
2022/02/08 16:53:30;;;;;;;;;6.75;6.75;;;;;11.01;68.73;102447.25;5096472;27;45519;-80
2022/02/08 16:58:37;;;;;;;;;8.00;8.00;;;;;11.26;69.06;102486.47;5095846;27;45779;-77
2022/02/08 17:01:11;;;;;;;;;9.50;8.75;;;;;10.70;68.98;102402.41;5096538;27;45368;-83
2022/02/08 17:03:42;;;;;;;;;6.00;5.50;;;;;10.78;68.93;102417.81;5097106;27;45255;-76
2022/02/08 17:06:07;;;;;;;;;11.00;9.50;;;;;10.76;69.05;102418.56;5096844;27;46352;-78
2022/02/08 17:08:33;;;;;;;;;11.75;11.00;;;;;11.17;69.13;102499.97;5096682;27;45449;-88
2022/02/08 17:11:00;;;;;;;;;9.50;9.00;;;;;11.12;69.20;102511.94;5091073;27;45777;-87
2022/02/08 17:13:51;;;;;;;;;7.75;7.25;;;;;10.70;69.06;102426.97;5095419;27;45434;-80
2022/02/08 17:48:12;;;;;;;;;13.00;12.50;;;;;10.82;69.66;102454.00;5094986;27;46028;-78
2022/02/08 17:50:37;;;;;;;;;15.50;12.50;;;;;11.23;69.55;102542.47;5094778;27;45370;-78
2022/02/08 17:53:04;;;;;;;;;34.00;31.25;;;;;10.47;69.57;102408.88;5091935;27;45536;-84
2022/02/08 17:55:30;;;;;;;;;25.75;23.00;;;;;10.53;69.84;102414.50;5094500;27;45270;-76
2022/02/08 17:57:56;;;;;;;;;11.25;11.25;;;;;11.13;69.60;102526.00;5095180;27;45545;-77
2022/02/08 18:00:22;;;;;;;;;76.75;59.25;;;;;10.88;70.05;102484.13;5094748;27;45458;-77
2022/02/08 18:02:48;;;;;;;;;13.75;13.50;;;;;10.73;69.48;102449.91;5095023;27;45376;-76
2022/02/08 18:05:17;;;;;;;;;44.00;34.50;;;;;10.88;69.63;102470.97;5094572;27;45642;-76
2022/02/08 18:07:44;;;;;;;;;36.75;31.75;;;;;11.31;69.73;102532.38;5094577;27;46238;-75
2022/02/08 18:10:11;;;;;;;;;52.50;43.50;;;;;10.64;69.44;102418.72;5095084;27;45781;-75
2022/02/08 18:12:41;;;;;;;;;31.25;28.75;;;;;11.15;69.62;102490.19;5095076;27;45368;-77
2022/02/08 18:15:12;;;;;;;;;86.75;76.00;;;;;11.14;69.73;102494.53;5109099;27;45445;-77
2022/02/08 18:17:43;;;;;;;;;64.75;53.00;;;;;11.16;69.58;102498.16;5109414;27;45580;-77
2022/02/08 18:20:27;;;;;;;;;36.75;33.25;;;;;10.73;69.83;102426.25;5113017;27;45588;-77
2022/02/08 19:16:29;;;;;;;;;20.25;19.25;;;;;10.30;71.26;102500.75;5093930;27;45480;-77
2022/02/08 19:23:52;;;;;;;;;43.75;39.50;;;;;9.83;71.89;102466.09;5092216;27;45366;-87
2022/02/08 19:26:18;;;;;;;;;37.25;34.75;;;;;9.53;71.90;102426.53;5093488;27;45305;-88
2022/02/08 19:28:46;;;;;;;;;36.00;33.50;;;;;9.45;72.13;102422.50;5091566;27;45586;-84
2022/02/08 19:31:12;;;;;;;;;59.50;48.75;;;;;10.10;72.50;102532.69;5093795;27;45639;-84
2022/02/08 19:33:38;;;;;;;;;72.50;55.25;;;;;9.48;72.60;102437.56;5093924;27;45357;-76
2022/02/08 19:36:04;;;;;;;;;63.25;49.75;;;;;9.08;72.63;102365.78;5094044;27;45381;-85
2022/02/08 19:38:36;;;;;;;;;57.50;45.50;;;;;9.16;72.40;102391.72;5092791;27;45281;-76
2022/02/08 19:41:02;;;;;;;;;62.25;50.00;;;;;9.95;72.67;102537.84;5093264;27;46275;-76
2022/02/08 19:43:27;;;;;;;;;60.75;49.75;;;;;9.25;72.32;102415.94;5093487;27;45780;-86
2022/02/08 19:45:52;;;;;;;;;60.75;49.75;;;;;9.35;72.33;102442.78;5093686;27;45500;-75
2022/02/08 19:48:18;;;;;;;;;70.33;54.33;;;;;9.23;72.37;102437.63;5093824;27;45433;-76